Orbital elements of FENGYUN 1C DEB
| Launched | 9 May 1999 |
| Flight ended | – |
| Launch site | Taiyuan Space Center, PRC |
| Owner | People's Republic of China |
| NORAD ID | 32223 |
| Date fetched |
Epoch osculation |
Inc. [°] |
Ecc. | RA asc node [hr] |
Arg Peri. [°] |
Mean anom [°] |
Mean motion [rev/day] |
Abs. mag |
| Date fetched |
Epoch osculation |
Inc. [°] |
Ecc. | RA asc node [hr] |
Arg Peri. [°] |
Mean anom [°] |
Mean motion [rev/day] |
Abs. mag |
| 2026 May 08 17:57 | 2026 May 02 11:09:32 | 98.8278 | 0.00451 | 13.7726 | 272.0878 | 149.3712 | 14.21858 | – |
| 2026 May 07 17:58 | 2026 May 02 11:09:32 | 98.8278 | 0.00451 | 13.7726 | 272.0878 | 149.3712 | 14.21858 | – |
| 2026 May 06 17:57 | 2026 May 02 11:09:32 | 98.8278 | 0.00451 | 13.7726 | 272.0878 | 149.3712 | 14.21858 | – |
| 2026 May 05 17:57 | 2026 May 02 11:09:32 | 98.8278 | 0.00451 | 13.7726 | 272.0878 | 149.3712 | 14.21858 | – |
| 2026 May 04 17:57 | 2026 Apr 26 04:41:32 | 98.8272 | 0.00447 | 13.3543 | 290.8474 | 149.3712 | 14.21858 | – |
| 2026 May 03 17:57 | 2026 Apr 26 04:41:32 | 98.8272 | 0.00447 | 13.3543 | 290.8474 | 149.3712 | 14.21858 | – |
| 2026 May 02 17:57 | 2026 Apr 26 04:41:32 | 98.8272 | 0.00447 | 13.3543 | 290.8474 | 149.3712 | 14.21858 | – |
| 2026 May 01 17:56 | 2026 Apr 26 04:41:32 | 98.8272 | 0.00447 | 13.3543 | 290.8474 | 149.3712 | 14.21858 | – |
| 2026 Apr 30 17:56 | 2026 Apr 26 04:41:32 | 98.8272 | 0.00447 | 13.3543 | 290.8474 | 149.3712 | 14.21858 | – |
| 2026 Apr 29 17:57 | 2026 Apr 21 04:46:33 | 98.8272 | 0.00445 | 13.0210 | 305.8666 | 149.3712 | 14.21858 | – |
| 2026 Apr 28 17:56 | 2026 Apr 21 04:46:33 | 98.8272 | 0.00445 | 13.0210 | 305.8666 | 149.3712 | 14.21858 | – |
| 2026 Apr 27 17:58 | 2026 Apr 21 04:46:33 | 98.8272 | 0.00445 | 13.0210 | 305.8666 | 149.3712 | 14.21858 | – |
| 2026 Apr 26 17:58 | 2026 Apr 21 04:46:33 | 98.8272 | 0.00445 | 13.0210 | 305.8666 | 149.3712 | 14.21858 | – |
| 2026 Apr 25 17:58 | 2026 Apr 21 04:46:33 | 98.8272 | 0.00445 | 13.0210 | 305.8666 | 149.3712 | 14.21858 | – |
| 2026 Apr 24 17:59 | 2026 Apr 21 04:46:33 | 98.8272 | 0.00445 | 13.0210 | 305.8666 | 149.3712 | 14.21858 | – |
| 2026 Apr 23 17:57 | 2026 Apr 17 16:54:48 | 98.8277 | 0.00445 | 12.7879 | 316.4506 | 149.3712 | 14.21858 | – |
| 2026 Apr 22 17:57 | 2026 Apr 17 16:54:48 | 98.8277 | 0.00445 | 12.7879 | 316.4506 | 149.3712 | 14.21858 | – |
| 2026 Apr 21 17:57 | 2026 Apr 17 16:54:48 | 98.8277 | 0.00445 | 12.7879 | 316.4506 | 149.3712 | 14.21858 | – |
| 2026 Apr 20 17:57 | 2026 Apr 17 16:54:48 | 98.8277 | 0.00445 | 12.7879 | 316.4506 | 149.3712 | 14.21858 | – |
| 2026 Apr 19 17:58 | 2026 Apr 17 16:54:48 | 98.8277 | 0.00445 | 12.7879 | 316.4506 | 149.3712 | 14.21858 | – |
| 2026 Apr 18 17:56 | 2026 Apr 13 04:15:07 | 98.8273 | 0.00445 | 12.4859 | 330.0429 | 149.3712 | 14.21858 | – |
| 2026 Apr 16 17:57 | 2026 Apr 13 04:15:07 | 98.8273 | 0.00445 | 12.4859 | 330.0429 | 149.3712 | 14.21858 | – |
| 2026 Apr 14 17:57 | 2026 Apr 13 04:15:07 | 98.8273 | 0.00445 | 12.4859 | 330.0429 | 149.3712 | 14.21858 | – |
| 2026 Apr 13 17:57 | 2026 Apr 13 04:15:07 | 98.8273 | 0.00445 | 12.4859 | 330.0429 | 149.3712 | 14.21858 | – |
| 2026 Apr 12 17:57 | 2026 Apr 07 17:04:23 | 98.8266 | 0.00447 | 12.1213 | 346.7509 | 149.3712 | 14.21858 | – |
| 2026 Apr 11 17:57 | 2026 Apr 07 17:04:23 | 98.8266 | 0.00447 | 12.1213 | 346.7509 | 149.3712 | 14.21858 | – |